sensor_id;sensor_type;location;lat;lon;timestamp;P1;durP1;ratioP1;P2;durP2;ratioP2
65936;SDS011;52707;52.086;5.418;2023-12-07T00:01:21;22.70;;;12.18;;
65936;SDS011;52707;52.086;5.418;2023-12-07T00:03:48;22.02;;;11.32;;
65936;SDS011;52707;52.086;5.418;2023-12-07T00:06:14;21.15;;;11.65;;
65936;SDS011;52707;52.086;5.418;2023-12-07T00:08:40;20.08;;;11.75;;
65936;SDS011;52707;52.086;5.418;2023-12-07T00:11:07;18.13;;;11.60;;
65936;SDS011;52707;52.086;5.418;2023-12-07T00:13:33;18.80;;;11.30;;
65936;SDS011;52707;52.086;5.418;2023-12-07T00:15:59;22.92;;;10.85;;
65936;SDS011;52707;52.086;5.418;2023-12-07T00:18:26;20.50;;;11.50;;
65936;SDS011;52707;52.086;5.418;2023-12-07T00:20:52;21.25;;;10.93;;
65936;SDS011;52707;52.086;5.418;2023-12-07T00:23:19;17.42;;;10.25;;
65936;SDS011;52707;52.086;5.418;2023-12-07T00:25:45;17.50;;;10.55;;
65936;SDS011;52707;52.086;5.418;2023-12-07T00:28:12;20.83;;;10.20;;
65936;SDS011;52707;52.086;5.418;2023-12-07T00:30:38;20.48;;;10.45;;
65936;SDS011;52707;52.086;5.418;2023-12-07T00:33:04;17.40;;;10.60;;
65936;SDS011;52707;52.086;5.418;2023-12-07T00:35:31;18.33;;;10.30;;
65936;SDS011;52707;52.086;5.418;2023-12-07T00:37:57;22.65;;;11.15;;
65936;SDS011;52707;52.086;5.418;2023-12-07T00:40:23;15.90;;;10.10;;
65936;SDS011;52707;52.086;5.418;2023-12-07T00:42:50;19.13;;;10.95;;
65936;SDS011;52707;52.086;5.418;2023-12-07T00:45:16;19.88;;;10.43;;
65936;SDS011;52707;52.086;5.418;2023-12-07T00:47:43;17.27;;;9.48;;
65936;SDS011;52707;52.086;5.418;2023-12-07T00:50:11;15.30;;;10.25;;
65936;SDS011;52707;52.086;5.418;2023-12-07T00:52:38;18.67;;;10.60;;
65936;SDS011;52707;52.086;5.418;2023-12-07T00:55:05;17.80;;;10.85;;
65936;SDS011;52707;52.086;5.418;2023-12-07T00:57:37;20.30;;;10.65;;
65936;SDS011;52707;52.086;5.418;2023-12-07T01:00:04;26.33;;;11.02;;
65936;SDS011;52707;52.086;5.418;2023-12-07T01:02:31;21.65;;;11.02;;
65936;SDS011;52707;52.086;5.418;2023-12-07T01:04:57;19.23;;;11.25;;
65936;SDS011;52707;52.086;5.418;2023-12-07T01:07:24;20.15;;;10.90;;
65936;SDS011;52707;52.086;5.418;2023-12-07T01:09:50;18.60;;;10.57;;
65936;SDS011;52707;52.086;5.418;2023-12-07T01:12:16;16.90;;;9.55;;
65936;SDS011;52707;52.086;5.418;2023-12-07T01:14:43;17.80;;;9.13;;
65936;SDS011;52707;52.086;5.418;2023-12-07T01:17:09;16.30;;;10.00;;
65936;SDS011;52707;52.086;5.418;2023-12-07T01:19:36;15.80;;;9.02;;
65936;SDS011;52707;52.086;5.418;2023-12-07T01:22:02;15.82;;;8.77;;
65936;SDS011;52707;52.086;5.418;2023-12-07T01:24:29;17.60;;;8.90;;
65936;SDS011;52707;52.086;5.418;2023-12-07T01:26:55;13.90;;;9.10;;
65936;SDS011;52707;52.086;5.418;2023-12-07T01:29:22;15.02;;;8.65;;
65936;SDS011;52707;52.086;5.418;2023-12-07T01:31:48;17.25;;;8.77;;
65936;SDS011;52707;52.086;5.418;2023-12-07T01:34:15;13.60;;;7.53;;
65936;SDS011;52707;52.086;5.418;2023-12-07T01:36:41;14.75;;;8.00;;
65936;SDS011;52707;52.086;5.418;2023-12-07T01:39:07;15.65;;;8.55;;
65936;SDS011;52707;52.086;5.418;2023-12-07T01:41:38;13.10;;;8.15;;
65936;SDS011;52707;52.086;5.418;2023-12-07T01:44:05;15.40;;;7.95;;
65936;SDS011;52707;52.086;5.418;2023-12-07T01:46:32;14.98;;;8.20;;
65936;SDS011;52707;52.086;5.418;2023-12-07T01:48:58;13.05;;;8.40;;
65936;SDS011;52707;52.086;5.418;2023-12-07T01:51:25;12.13;;;8.35;;
65936;SDS011;52707;52.086;5.418;2023-12-07T01:53:52;16.20;;;7.93;;
65936;SDS011;52707;52.086;5.418;2023-12-07T01:56:19;13.68;;;8.18;;
65936;SDS011;52707;52.086;5.418;2023-12-07T01:58:45;13.82;;;7.35;;
65936;SDS011;52707;52.086;5.418;2023-12-07T02:01:11;16.35;;;8.68;;
65936;SDS011;52707;52.086;5.418;2023-12-07T02:03:41;14.60;;;7.80;;
65936;SDS011;52707;52.086;5.418;2023-12-07T02:06:08;15.18;;;8.25;;
65936;SDS011;52707;52.086;5.418;2023-12-07T02:08:35;16.60;;;8.75;;
65936;SDS011;52707;52.086;5.418;2023-12-07T02:11:01;14.57;;;7.40;;
65936;SDS011;52707;52.086;5.418;2023-12-07T02:13:28;14.55;;;8.15;;
65936;SDS011;52707;52.086;5.418;2023-12-07T02:15:54;14.75;;;7.78;;
65936;SDS011;52707;52.086;5.418;2023-12-07T02:23:26;14.38;;;7.93;;
65936;SDS011;52707;52.086;5.418;2023-12-07T02:26:12;16.42;;;8.35;;
65936;SDS011;52707;52.086;5.418;2023-12-07T02:28:39;12.88;;;7.80;;
65936;SDS011;52707;52.086;5.418;2023-12-07T02:31:06;16.30;;;8.05;;
65936;SDS011;52707;52.086;5.418;2023-12-07T02:33:32;19.25;;;8.63;;
65936;SDS011;52707;52.086;5.418;2023-12-07T02:35:59;14.10;;;7.88;;
65936;SDS011;52707;52.086;5.418;2023-12-07T02:38:26;18.30;;;7.65;;
65936;SDS011;52707;52.086;5.418;2023-12-07T02:40:53;12.23;;;7.60;;
65936;SDS011;52707;52.086;5.418;2023-12-07T02:43:20;13.00;;;7.18;;
65936;SDS011;52707;52.086;5.418;2023-12-07T02:45:47;15.43;;;8.02;;
65936;SDS011;52707;52.086;5.418;2023-12-07T02:48:14;14.10;;;8.30;;
65936;SDS011;52707;52.086;5.418;2023-12-07T02:50:40;24.85;;;7.55;;
65936;SDS011;52707;52.086;5.418;2023-12-07T02:53:07;14.27;;;7.82;;
65936;SDS011;52707;52.086;5.418;2023-12-07T02:55:33;9.88;;;6.78;;
65936;SDS011;52707;52.086;5.418;2023-12-07T02:58:00;16.73;;;8.13;;
65936;SDS011;52707;52.086;5.418;2023-12-07T03:00:26;14.52;;;7.70;;
65936;SDS011;52707;52.086;5.418;2023-12-07T03:02:52;14.30;;;8.25;;
65936;SDS011;52707;52.086;5.418;2023-12-07T03:05:19;14.90;;;8.40;;
65936;SDS011;52707;52.086;5.418;2023-12-07T03:07:46;14.85;;;7.85;;
65936;SDS011;52707;52.086;5.418;2023-12-07T03:10:13;14.80;;;8.38;;
65936;SDS011;52707;52.086;5.418;2023-12-07T03:12:39;18.30;;;8.63;;
65936;SDS011;52707;52.086;5.418;2023-12-07T03:15:05;15.80;;;8.00;;
65936;SDS011;52707;52.086;5.418;2023-12-07T03:17:32;14.20;;;7.65;;
65936;SDS011;52707;52.086;5.418;2023-12-07T03:19:58;13.85;;;7.78;;
65936;SDS011;52707;52.086;5.418;2023-12-07T03:22:25;17.42;;;8.20;;
65936;SDS011;52707;52.086;5.418;2023-12-07T03:24:52;16.73;;;7.93;;
65936;SDS011;52707;52.086;5.418;2023-12-07T03:27:18;14.25;;;7.25;;
65936;SDS011;52707;52.086;5.418;2023-12-07T03:29:45;12.57;;;7.18;;
65936;SDS011;52707;52.086;5.418;2023-12-07T03:32:12;12.05;;;6.90;;
65936;SDS011;52707;52.086;5.418;2023-12-07T03:34:38;10.98;;;7.10;;
65936;SDS011;52707;52.086;5.418;2023-12-07T03:37:05;13.57;;;7.38;;
65936;SDS011;52707;52.086;5.418;2023-12-07T03:39:32;11.63;;;6.70;;
65936;SDS011;52707;52.086;5.418;2023-12-07T03:41:59;15.23;;;8.30;;
65936;SDS011;52707;52.086;5.418;2023-12-07T03:44:25;10.02;;;7.05;;
65936;SDS011;52707;52.086;5.418;2023-12-07T03:46:53;12.57;;;7.38;;
65936;SDS011;52707;52.086;5.418;2023-12-07T03:49:19;13.25;;;7.35;;
65936;SDS011;52707;52.086;5.418;2023-12-07T03:51:45;16.80;;;7.53;;
65936;SDS011;52707;52.086;5.418;2023-12-07T03:54:12;11.60;;;6.90;;
65936;SDS011;52707;52.086;5.418;2023-12-07T03:56:38;12.95;;;7.10;;
65936;SDS011;52707;52.086;5.418;2023-12-07T03:59:06;10.38;;;6.65;;
65936;SDS011;52707;52.086;5.418;2023-12-07T04:01:33;24.30;;;7.75;;
65936;SDS011;52707;52.086;5.418;2023-12-07T04:03:59;15.65;;;7.53;;
65936;SDS011;52707;52.086;5.418;2023-12-07T04:06:27;12.13;;;7.50;;
65936;SDS011;52707;52.086;5.418;2023-12-07T04:08:53;11.30;;;7.60;;
65936;SDS011;52707;52.086;5.418;2023-12-07T04:11:19;15.85;;;7.78;;
65936;SDS011;52707;52.086;5.418;2023-12-07T04:13:46;15.95;;;8.40;;
65936;SDS011;52707;52.086;5.418;2023-12-07T04:16:12;11.40;;;7.80;;
65936;SDS011;52707;52.086;5.418;2023-12-07T04:18:38;18.85;;;7.95;;
65936;SDS011;52707;52.086;5.418;2023-12-07T04:21:05;20.63;;;8.38;;
65936;SDS011;52707;52.086;5.418;2023-12-07T04:23:32;18.45;;;8.65;;
65936;SDS011;52707;52.086;5.418;2023-12-07T04:25:58;20.17;;;8.77;;
65936;SDS011;52707;52.086;5.418;2023-12-07T04:28:24;20.38;;;9.30;;
65936;SDS011;52707;52.086;5.418;2023-12-07T04:30:51;19.15;;;9.38;;
65936;SDS011;52707;52.086;5.418;2023-12-07T04:33:17;13.32;;;8.35;;
65936;SDS011;52707;52.086;5.418;2023-12-07T04:35:44;15.85;;;9.18;;
65936;SDS011;52707;52.086;5.418;2023-12-07T04:38:10;13.18;;;8.93;;
65936;SDS011;52707;52.086;5.418;2023-12-07T04:40:36;12.98;;;8.07;;
65936;SDS011;52707;52.086;5.418;2023-12-07T04:43:03;16.25;;;8.80;;
65936;SDS011;52707;52.086;5.418;2023-12-07T04:45:30;13.07;;;8.55;;
65936;SDS011;52707;52.086;5.418;2023-12-07T04:47:56;39.85;;;10.20;;
65936;SDS011;52707;52.086;5.418;2023-12-07T04:50:24;17.50;;;10.30;;
65936;SDS011;52707;52.086;5.418;2023-12-07T04:52:50;33.60;;;11.70;;
65936;SDS011;52707;52.086;5.418;2023-12-07T04:55:17;20.15;;;11.02;;
65936;SDS011;52707;52.086;5.418;2023-12-07T04:57:43;29.65;;;11.65;;
65936;SDS011;52707;52.086;5.418;2023-12-07T05:00:10;30.23;;;11.93;;
65936;SDS011;52707;52.086;5.418;2023-12-07T05:02:37;30.02;;;10.77;;
65936;SDS011;52707;52.086;5.418;2023-12-07T05:05:04;37.83;;;12.07;;
65936;SDS011;52707;52.086;5.418;2023-12-07T05:07:31;20.02;;;11.65;;
65936;SDS011;52707;52.086;5.418;2023-12-07T05:09:57;25.45;;;10.82;;
65936;SDS011;52707;52.086;5.418;2023-12-07T05:12:24;51.67;;;10.38;;
65936;SDS011;52707;52.086;5.418;2023-12-07T05:14:51;40.88;;;11.13;;
65936;SDS011;52707;52.086;5.418;2023-12-07T05:17:17;36.97;;;10.70;;
65936;SDS011;52707;52.086;5.418;2023-12-07T05:19:44;27.15;;;10.38;;
65936;SDS011;52707;52.086;5.418;2023-12-07T05:22:11;43.40;;;9.88;;
65936;SDS011;52707;52.086;5.418;2023-12-07T05:24:37;53.35;;;11.70;;
65936;SDS011;52707;52.086;5.418;2023-12-07T05:27:04;54.08;;;11.18;;
65936;SDS011;52707;52.086;5.418;2023-12-07T05:29:30;20.27;;;9.57;;
65936;SDS011;52707;52.086;5.418;2023-12-07T05:31:57;61.72;;;10.38;;
65936;SDS011;52707;52.086;5.418;2023-12-07T05:34:23;26.95;;;10.18;;
65936;SDS011;52707;52.086;5.418;2023-12-07T05:36:49;27.52;;;10.48;;
65936;SDS011;52707;52.086;5.418;2023-12-07T05:39:16;67.70;;;11.00;;
65936;SDS011;52707;52.086;5.418;2023-12-07T05:41:43;91.80;;;13.43;;
65936;SDS011;52707;52.086;5.418;2023-12-07T05:44:10;68.60;;;18.30;;
65936;SDS011;52707;52.086;5.418;2023-12-07T05:46:36;93.75;;;12.15;;
65936;SDS011;52707;52.086;5.418;2023-12-07T05:49:03;66.90;;;12.88;;
65936;SDS011;52707;52.086;5.418;2023-12-07T05:51:29;83.18;;;12.27;;
65936;SDS011;52707;52.086;5.418;2023-12-07T05:53:55;82.75;;;11.48;;
65936;SDS011;52707;52.086;5.418;2023-12-07T05:56:22;74.32;;;12.95;;
65936;SDS011;52707;52.086;5.418;2023-12-07T05:58:48;45.72;;;11.32;;
65936;SDS011;52707;52.086;5.418;2023-12-07T06:01:17;80.43;;;13.18;;
65936;SDS011;52707;52.086;5.418;2023-12-07T06:03:45;89.93;;;12.27;;
65936;SDS011;52707;52.086;5.418;2023-12-07T06:06:11;68.68;;;12.98;;
65936;SDS011;52707;52.086;5.418;2023-12-07T06:08:38;76.75;;;14.20;;
65936;SDS011;52707;52.086;5.418;2023-12-07T06:11:04;69.03;;;13.15;;
65936;SDS011;52707;52.086;5.418;2023-12-07T06:13:31;63.08;;;12.82;;
65936;SDS011;52707;52.086;5.418;2023-12-07T06:15:57;60.28;;;13.15;;
65936;SDS011;52707;52.086;5.418;2023-12-07T06:18:24;60.78;;;13.45;;
65936;SDS011;52707;52.086;5.418;2023-12-07T06:20:51;70.75;;;14.73;;
65936;SDS011;52707;52.086;5.418;2023-12-07T06:23:17;97.40;;;14.55;;
65936;SDS011;52707;52.086;5.418;2023-12-07T06:25:44;35.00;;;13.27;;
65936;SDS011;52707;52.086;5.418;2023-12-07T06:28:11;70.30;;;13.30;;
65936;SDS011;52707;52.086;5.418;2023-12-07T06:30:37;42.17;;;12.35;;
65936;SDS011;52707;52.086;5.418;2023-12-07T06:33:04;53.53;;;13.05;;
65936;SDS011;52707;52.086;5.418;2023-12-07T06:35:30;68.82;;;13.50;;
65936;SDS011;52707;52.086;5.418;2023-12-07T06:37:57;58.08;;;13.20;;
65936;SDS011;52707;52.086;5.418;2023-12-07T06:40:23;68.15;;;12.52;;
65936;SDS011;52707;52.086;5.418;2023-12-07T06:42:49;67.88;;;13.63;;
65936;SDS011;52707;52.086;5.418;2023-12-07T06:45:16;47.88;;;13.38;;
65936;SDS011;52707;52.086;5.418;2023-12-07T06:47:42;52.75;;;12.65;;
65936;SDS011;52707;52.086;5.418;2023-12-07T06:50:09;28.75;;;12.75;;
65936;SDS011;52707;52.086;5.418;2023-12-07T06:52:36;59.38;;;13.85;;
65936;SDS011;52707;52.086;5.418;2023-12-07T06:55:03;76.07;;;12.45;;
65936;SDS011;52707;52.086;5.418;2023-12-07T06:57:30;27.63;;;12.63;;
65936;SDS011;52707;52.086;5.418;2023-12-07T06:59:56;82.18;;;13.68;;
65936;SDS011;52707;52.086;5.418;2023-12-07T07:02:22;42.20;;;13.60;;
65936;SDS011;52707;52.086;5.418;2023-12-07T07:04:52;50.30;;;14.18;;
65936;SDS011;52707;52.086;5.418;2023-12-07T07:07:18;103.43;;;15.77;;
65936;SDS011;52707;52.086;5.418;2023-12-07T07:09:45;82.70;;;14.65;;
65936;SDS011;52707;52.086;5.418;2023-12-07T07:12:12;105.22;;;15.25;;
65936;SDS011;52707;52.086;5.418;2023-12-07T07:14:38;85.72;;;13.23;;
65936;SDS011;52707;52.086;5.418;2023-12-07T07:17:04;78.75;;;16.15;;
65936;SDS011;52707;52.086;5.418;2023-12-07T07:19:31;71.95;;;14.30;;
65936;SDS011;52707;52.086;5.418;2023-12-07T07:21:57;38.10;;;14.65;;
65936;SDS011;52707;52.086;5.418;2023-12-07T07:24:24;72.90;;;14.80;;
65936;SDS011;52707;52.086;5.418;2023-12-07T07:26:50;67.50;;;14.70;;
65936;SDS011;52707;52.086;5.418;2023-12-07T07:29:16;42.28;;;14.55;;
65936;SDS011;52707;52.086;5.418;2023-12-07T07:31:43;93.15;;;14.75;;
65936;SDS011;52707;52.086;5.418;2023-12-07T07:34:09;67.10;;;14.52;;
65936;SDS011;52707;52.086;5.418;2023-12-07T07:36:35;77.93;;;14.15;;
65936;SDS011;52707;52.086;5.418;2023-12-07T07:39:02;76.80;;;13.25;;
65936;SDS011;52707;52.086;5.418;2023-12-07T07:41:28;92.00;;;14.23;;
65936;SDS011;52707;52.086;5.418;2023-12-07T07:43:54;89.50;;;13.25;;
65936;SDS011;52707;52.086;5.418;2023-12-07T07:46:21;80.68;;;13.32;;
65936;SDS011;52707;52.086;5.418;2023-12-07T07:48:48;42.63;;;11.43;;
65936;SDS011;52707;52.086;5.418;2023-12-07T07:51:15;47.90;;;12.80;;
65936;SDS011;52707;52.086;5.418;2023-12-07T07:53:41;46.25;;;13.23;;
65936;SDS011;52707;52.086;5.418;2023-12-07T07:56:07;73.20;;;14.02;;
65936;SDS011;52707;52.086;5.418;2023-12-07T07:58:35;75.57;;;13.82;;
65936;SDS011;52707;52.086;5.418;2023-12-07T08:01:01;37.50;;;13.38;;
65936;SDS011;52707;52.086;5.418;2023-12-07T08:03:28;68.35;;;13.20;;
65936;SDS011;52707;52.086;5.418;2023-12-07T08:05:54;103.82;;;14.27;;
65936;SDS011;52707;52.086;5.418;2023-12-07T08:08:20;100.63;;;14.23;;
65936;SDS011;52707;52.086;5.418;2023-12-07T08:10:47;92.90;;;15.80;;
65936;SDS011;52707;52.086;5.418;2023-12-07T08:13:21;49.97;;;15.43;;
65936;SDS011;52707;52.086;5.418;2023-12-07T08:15:48;77.40;;;15.80;;
65936;SDS011;52707;52.086;5.418;2023-12-07T08:18:15;28.02;;;15.45;;
65936;SDS011;52707;52.086;5.418;2023-12-07T08:20:41;75.22;;;15.32;;
65936;SDS011;52707;52.086;5.418;2023-12-07T08:23:07;94.90;;;14.77;;
65936;SDS011;52707;52.086;5.418;2023-12-07T08:25:34;56.45;;;17.63;;
65936;SDS011;52707;52.086;5.418;2023-12-07T08:28:00;105.82;;;17.05;;
65936;SDS011;52707;52.086;5.418;2023-12-07T08:30:27;60.65;;;16.35;;
65936;SDS011;52707;52.086;5.418;2023-12-07T08:32:53;49.90;;;16.55;;
65936;SDS011;52707;52.086;5.418;2023-12-07T08:35:20;68.47;;;15.93;;
65936;SDS011;52707;52.086;5.418;2023-12-07T08:37:46;50.20;;;14.60;;
65936;SDS011;52707;52.086;5.418;2023-12-07T08:40:12;92.43;;;15.93;;
65936;SDS011;52707;52.086;5.418;2023-12-07T08:42:44;62.15;;;16.63;;
65936;SDS011;52707;52.086;5.418;2023-12-07T08:45:13;37.95;;;15.07;;
65936;SDS011;52707;52.086;5.418;2023-12-07T08:47:42;89.13;;;16.77;;
65936;SDS011;52707;52.086;5.418;2023-12-07T08:50:08;45.60;;;16.50;;
65936;SDS011;52707;52.086;5.418;2023-12-07T08:52:35;87.70;;;18.67;;
65936;SDS011;52707;52.086;5.418;2023-12-07T08:55:12;46.85;;;16.33;;
65936;SDS011;52707;52.086;5.418;2023-12-07T08:57:41;60.70;;;15.93;;
65936;SDS011;52707;52.086;5.418;2023-12-07T09:00:08;101.78;;;16.33;;
65936;SDS011;52707;52.086;5.418;2023-12-07T09:02:34;110.85;;;16.58;;
65936;SDS011;52707;52.086;5.418;2023-12-07T09:05:12;41.42;;;16.35;;
65936;SDS011;52707;52.086;5.418;2023-12-07T09:07:39;54.28;;;14.23;;
65936;SDS011;52707;52.086;5.418;2023-12-07T09:10:05;35.80;;;13.95;;
65936;SDS011;52707;52.086;5.418;2023-12-07T09:12:33;106.68;;;13.63;;
65936;SDS011;52707;52.086;5.418;2023-12-07T09:15:05;49.40;;;13.15;;
65936;SDS011;52707;52.086;5.418;2023-12-07T09:17:33;87.93;;;14.35;;
65936;SDS011;52707;52.086;5.418;2023-12-07T09:19:59;70.55;;;13.18;;
65936;SDS011;52707;52.086;5.418;2023-12-07T09:22:27;49.97;;;13.50;;
65936;SDS011;52707;52.086;5.418;2023-12-07T09:25:02;54.53;;;12.10;;
65936;SDS011;52707;52.086;5.418;2023-12-07T09:27:29;48.65;;;12.15;;
65936;SDS011;52707;52.086;5.418;2023-12-07T09:29:58;52.65;;;11.82;;
65936;SDS011;52707;52.086;5.418;2023-12-07T09:32:24;52.75;;;11.50;;
65936;SDS011;52707;52.086;5.418;2023-12-07T09:35:01;43.10;;;11.43;;
65936;SDS011;52707;52.086;5.418;2023-12-07T09:37:28;27.55;;;11.10;;
65936;SDS011;52707;52.086;5.418;2023-12-07T09:39:54;54.40;;;10.60;;
65936;SDS011;52707;52.086;5.418;2023-12-07T09:42:20;58.83;;;15.23;;
65936;SDS011;52707;52.086;5.418;2023-12-07T09:44:48;64.57;;;12.88;;
65936;SDS011;52707;52.086;5.418;2023-12-07T09:47:14;26.65;;;10.20;;
65936;SDS011;52707;52.086;5.418;2023-12-07T09:49:53;92.93;;;10.70;;
65936;SDS011;52707;52.086;5.418;2023-12-07T09:52:20;57.60;;;11.07;;
65936;SDS011;52707;52.086;5.418;2023-12-07T09:54:47;46.60;;;11.65;;
65936;SDS011;52707;52.086;5.418;2023-12-07T09:57:15;58.92;;;12.02;;
65936;SDS011;52707;52.086;5.418;2023-12-07T09:59:42;40.55;;;10.65;;
65936;SDS011;52707;52.086;5.418;2023-12-07T10:02:08;46.08;;;10.57;;
65936;SDS011;52707;52.086;5.418;2023-12-07T10:04:34;26.23;;;9.85;;
65936;SDS011;52707;52.086;5.418;2023-12-07T10:07:02;21.25;;;10.10;;
65936;SDS011;52707;52.086;5.418;2023-12-07T10:09:29;27.02;;;9.10;;
65936;SDS011;52707;52.086;5.418;2023-12-07T10:12:02;33.90;;;8.90;;
65936;SDS011;52707;52.086;5.418;2023-12-07T10:14:29;28.23;;;8.35;;
65936;SDS011;52707;52.086;5.418;2023-12-07T10:16:56;54.47;;;7.93;;
65936;SDS011;52707;52.086;5.418;2023-12-07T10:19:23;23.95;;;8.40;;
65936;SDS011;52707;52.086;5.418;2023-12-07T10:21:57;41.25;;;9.18;;
65936;SDS011;52707;52.086;5.418;2023-12-07T10:24:24;36.70;;;8.38;;
65936;SDS011;52707;52.086;5.418;2023-12-07T10:26:51;25.80;;;8.50;;
65936;SDS011;52707;52.086;5.418;2023-12-07T10:29:28;15.63;;;8.13;;
65936;SDS011;52707;52.086;5.418;2023-12-07T10:34:25;39.20;;;7.95;;
65936;SDS011;52707;52.086;5.418;2023-12-07T10:36:52;27.67;;;9.90;;
65936;SDS011;52707;52.086;5.418;2023-12-07T10:39:19;69.28;;;8.77;;
65936;SDS011;52707;52.086;5.418;2023-12-07T10:41:54;22.75;;;9.27;;
65936;SDS011;52707;52.086;5.418;2023-12-07T10:44:24;19.02;;;9.32;;
65936;SDS011;52707;52.086;5.418;2023-12-07T10:46:52;48.70;;;9.38;;
65936;SDS011;52707;52.086;5.418;2023-12-07T10:49:19;19.48;;;8.85;;
65936;SDS011;52707;52.086;5.418;2023-12-07T10:52:00;38.20;;;10.35;;
65936;SDS011;52707;52.086;5.418;2023-12-07T10:54:50;21.45;;;9.77;;
65936;SDS011;52707;52.086;5.418;2023-12-07T10:57:17;18.25;;;8.68;;
65936;SDS011;52707;52.086;5.418;2023-12-07T10:59:45;27.65;;;8.05;;
65936;SDS011;52707;52.086;5.418;2023-12-07T11:02:12;15.48;;;9.02;;
65936;SDS011;52707;52.086;5.418;2023-12-07T11:04:41;17.23;;;8.48;;
65936;SDS011;52707;52.086;5.418;2023-12-07T11:07:13;13.57;;;7.90;;
65936;SDS011;52707;52.086;5.418;2023-12-07T11:09:43;13.68;;;9.05;;
65936;SDS011;52707;52.086;5.418;2023-12-07T11:14:37;16.20;;;8.82;;
65936;SDS011;52707;52.086;5.418;2023-12-07T11:17:04;15.05;;;8.10;;
65936;SDS011;52707;52.086;5.418;2023-12-07T11:22:06;17.17;;;9.65;;
65936;SDS011;52707;52.086;5.418;2023-12-07T11:24:33;23.50;;;11.73;;
65936;SDS011;52707;52.086;5.418;2023-12-07T11:26:59;15.80;;;9.43;;
65936;SDS011;52707;52.086;5.418;2023-12-07T11:29:28;16.17;;;9.18;;
65936;SDS011;52707;52.086;5.418;2023-12-07T11:31:55;23.33;;;10.00;;
65936;SDS011;52707;52.086;5.418;2023-12-07T11:34:38;14.60;;;9.07;;
65936;SDS011;52707;52.086;5.418;2023-12-07T11:37:06;17.60;;;10.02;;
65936;SDS011;52707;52.086;5.418;2023-12-07T11:39:36;21.70;;;10.25;;
65936;SDS011;52707;52.086;5.418;2023-12-07T11:42:06;31.63;;;11.25;;
65936;SDS011;52707;52.086;5.418;2023-12-07T11:44:33;25.75;;;10.77;;
65936;SDS011;52707;52.086;5.418;2023-12-07T11:47:00;22.92;;;11.15;;
65936;SDS011;52707;52.086;5.418;2023-12-07T11:49:26;26.42;;;11.60;;
65936;SDS011;52707;52.086;5.418;2023-12-07T11:52:01;21.25;;;10.70;;
65936;SDS011;52707;52.086;5.418;2023-12-07T11:54:37;26.80;;;11.07;;
65936;SDS011;52707;52.086;5.418;2023-12-07T11:57:04;29.20;;;12.27;;
65936;SDS011;52707;52.086;5.418;2023-12-07T11:59:30;23.25;;;11.93;;
65936;SDS011;52707;52.086;5.418;2023-12-07T12:02:00;23.02;;;12.35;;
65936;SDS011;52707;52.086;5.418;2023-12-07T12:04:27;35.17;;;12.90;;
65936;SDS011;52707;52.086;5.418;2023-12-07T12:06:54;26.73;;;12.60;;
65936;SDS011;52707;52.086;5.418;2023-12-07T12:09:20;24.63;;;12.73;;
65936;SDS011;52707;52.086;5.418;2023-12-07T12:11:57;22.05;;;13.25;;
65936;SDS011;52707;52.086;5.418;2023-12-07T12:14:27;30.53;;;13.57;;
65936;SDS011;52707;52.086;5.418;2023-12-07T12:16:56;30.80;;;14.80;;
65936;SDS011;52707;52.086;5.418;2023-12-07T12:19:24;31.55;;;14.25;;
65936;SDS011;52707;52.086;5.418;2023-12-07T12:22:00;30.85;;;16.00;;
65936;SDS011;52707;52.086;5.418;2023-12-07T12:24:29;30.30;;;15.23;;
65936;SDS011;52707;52.086;5.418;2023-12-07T12:26:56;25.98;;;13.93;;
65936;SDS011;52707;52.086;5.418;2023-12-07T12:29:23;26.45;;;14.02;;
65936;SDS011;52707;52.086;5.418;2023-12-07T12:31:59;27.85;;;13.65;;
65936;SDS011;52707;52.086;5.418;2023-12-07T12:34:25;26.40;;;14.80;;
65936;SDS011;52707;52.086;5.418;2023-12-07T12:36:55;28.27;;;16.35;;
65936;SDS011;52707;52.086;5.418;2023-12-07T12:39:26;30.92;;;15.77;;
65936;SDS011;52707;52.086;5.418;2023-12-07T12:41:59;40.90;;;18.27;;
65936;SDS011;52707;52.086;5.418;2023-12-07T12:44:26;40.08;;;18.17;;
65936;SDS011;52707;52.086;5.418;2023-12-07T12:47:01;44.85;;;20.77;;
65936;SDS011;52707;52.086;5.418;2023-12-07T12:49:37;49.97;;;23.42;;
65936;SDS011;52707;52.086;5.418;2023-12-07T12:52:04;44.80;;;19.85;;
65936;SDS011;52707;52.086;5.418;2023-12-07T12:54:31;42.88;;;20.02;;
65936;SDS011;52707;52.086;5.418;2023-12-07T12:56:58;40.33;;;19.63;;
65936;SDS011;52707;52.086;5.418;2023-12-07T12:59:25;34.25;;;16.10;;
65936;SDS011;52707;52.086;5.418;2023-12-07T13:01:52;49.70;;;20.33;;
65936;SDS011;52707;52.086;5.418;2023-12-07T13:04:18;33.20;;;16.27;;
65936;SDS011;52707;52.086;5.418;2023-12-07T13:06:46;30.30;;;15.10;;
65936;SDS011;52707;52.086;5.418;2023-12-07T13:09:12;28.65;;;14.80;;
65936;SDS011;52707;52.086;5.418;2023-12-07T13:11:38;27.27;;;15.43;;
65936;SDS011;52707;52.086;5.418;2023-12-07T13:14:05;31.20;;;16.52;;
65936;SDS011;52707;52.086;5.418;2023-12-07T13:16:34;25.45;;;15.73;;
65936;SDS011;52707;52.086;5.418;2023-12-07T13:19:00;27.13;;;15.18;;
65936;SDS011;52707;52.086;5.418;2023-12-07T13:21:27;28.00;;;15.57;;
65936;SDS011;52707;52.086;5.418;2023-12-07T13:23:53;28.25;;;15.52;;
65936;SDS011;52707;52.086;5.418;2023-12-07T13:26:20;23.13;;;14.38;;
65936;SDS011;52707;52.086;5.418;2023-12-07T13:28:49;27.38;;;15.55;;
65936;SDS011;52707;52.086;5.418;2023-12-07T13:31:15;28.30;;;15.63;;
65936;SDS011;52707;52.086;5.418;2023-12-07T13:33:42;31.70;;;16.73;;
65936;SDS011;52707;52.086;5.418;2023-12-07T13:36:20;33.05;;;16.52;;
65936;SDS011;52707;52.086;5.418;2023-12-07T13:38:49;32.85;;;18.08;;
65936;SDS011;52707;52.086;5.418;2023-12-07T13:41:15;34.10;;;19.40;;
65936;SDS011;52707;52.086;5.418;2023-12-07T13:43:42;35.90;;;21.23;;
65936;SDS011;52707;52.086;5.418;2023-12-07T13:46:09;34.53;;;19.17;;
65936;SDS011;52707;52.086;5.418;2023-12-07T13:48:36;34.70;;;20.65;;
65936;SDS011;52707;52.086;5.418;2023-12-07T13:51:03;39.88;;;21.50;;
65936;SDS011;52707;52.086;5.418;2023-12-07T13:53:30;36.45;;;20.55;;
65936;SDS011;52707;52.086;5.418;2023-12-07T13:55:57;36.53;;;19.95;;
65936;SDS011;52707;52.086;5.418;2023-12-07T13:58:23;36.75;;;20.73;;
65936;SDS011;52707;52.086;5.418;2023-12-07T14:00:49;31.35;;;19.05;;
65936;SDS011;52707;52.086;5.418;2023-12-07T14:03:16;49.72;;;20.02;;
65936;SDS011;52707;52.086;5.418;2023-12-07T14:05:42;40.83;;;20.92;;
65936;SDS011;52707;52.086;5.418;2023-12-07T14:08:09;37.33;;;19.40;;
65936;SDS011;52707;52.086;5.418;2023-12-07T14:10:35;39.85;;;21.38;;
65936;SDS011;52707;52.086;5.418;2023-12-07T14:13:02;38.38;;;19.88;;
65936;SDS011;52707;52.086;5.418;2023-12-07T14:15:28;46.95;;;22.30;;
65936;SDS011;52707;52.086;5.418;2023-12-07T14:18:09;43.05;;;20.73;;
65936;SDS011;52707;52.086;5.418;2023-12-07T14:20:36;39.58;;;20.27;;
65936;SDS011;52707;52.086;5.418;2023-12-07T14:23:22;47.20;;;21.92;;
65936;SDS011;52707;52.086;5.418;2023-12-07T14:25:49;45.50;;;21.77;;
65936;SDS011;52707;52.086;5.418;2023-12-07T14:28:17;38.58;;;20.10;;
65936;SDS011;52707;52.086;5.418;2023-12-07T14:30:44;35.17;;;21.23;;
65936;SDS011;52707;52.086;5.418;2023-12-07T14:33:10;40.55;;;21.77;;
65936;SDS011;52707;52.086;5.418;2023-12-07T14:35:37;52.50;;;24.38;;
65936;SDS011;52707;52.086;5.418;2023-12-07T14:38:04;43.95;;;22.38;;
65936;SDS011;52707;52.086;5.418;2023-12-07T14:40:30;42.80;;;22.10;;